sensor_id;sensor_type;location;lat;lon;timestamp;P1;durP1;ratioP1;P2;durP2;ratioP2
42226;SDS011;27892;52.378;13.122;2022-08-19T00:01:47;4.80;;;4.40;;
42226;SDS011;27892;52.378;13.122;2022-08-19T00:04:15;4.10;;;3.80;;
42226;SDS011;27892;52.378;13.122;2022-08-19T00:06:43;4.60;;;4.20;;
42226;SDS011;27892;52.378;13.122;2022-08-19T00:09:12;4.53;;;4.10;;
42226;SDS011;27892;52.378;13.122;2022-08-19T00:11:39;4.90;;;4.50;;
42226;SDS011;27892;52.378;13.122;2022-08-19T00:14:07;6.35;;;5.80;;
42226;SDS011;27892;52.378;13.122;2022-08-19T00:16:35;7.70;;;6.93;;
42226;SDS011;27892;52.378;13.122;2022-08-19T00:19:02;6.45;;;5.85;;
42226;SDS011;27892;52.378;13.122;2022-08-19T00:21:28;6.40;;;5.80;;
42226;SDS011;27892;52.378;13.122;2022-08-19T00:23:55;5.72;;;5.30;;
42226;SDS011;27892;52.378;13.122;2022-08-19T00:26:23;5.47;;;4.97;;
42226;SDS011;27892;52.378;13.122;2022-08-19T00:28:50;5.95;;;5.45;;
42226;SDS011;27892;52.378;13.122;2022-08-19T00:31:16;5.13;;;4.72;;
42226;SDS011;27892;52.378;13.122;2022-08-19T00:33:42;6.68;;;6.07;;
42226;SDS011;27892;52.378;13.122;2022-08-19T00:36:08;6.93;;;6.32;;
42226;SDS011;27892;52.378;13.122;2022-08-19T00:38:34;7.05;;;6.45;;
42226;SDS011;27892;52.378;13.122;2022-08-19T00:41:00;5.90;;;5.30;;
42226;SDS011;27892;52.378;13.122;2022-08-19T00:43:27;6.47;;;5.88;;
42226;SDS011;27892;52.378;13.122;2022-08-19T00:45:53;6.30;;;5.70;;
42226;SDS011;27892;52.378;13.122;2022-08-19T00:48:19;6.43;;;5.82;;
42226;SDS011;27892;52.378;13.122;2022-08-19T00:50:46;7.47;;;6.78;;
42226;SDS011;27892;52.378;13.122;2022-08-19T00:53:14;6.55;;;5.95;;
42226;SDS011;27892;52.378;13.122;2022-08-19T00:55:45;6.78;;;6.00;;
42226;SDS011;27892;52.378;13.122;2022-08-19T00:58:14;5.80;;;5.30;;
42226;SDS011;27892;52.378;13.122;2022-08-19T01:00:42;5.60;;;5.10;;
42226;SDS011;27892;52.378;13.122;2022-08-19T01:03:09;5.28;;;4.85;;
42226;SDS011;27892;52.378;13.122;2022-08-19T01:05:38;5.47;;;4.70;;
42226;SDS011;27892;52.378;13.122;2022-08-19T01:08:06;4.10;;;3.80;;
42226;SDS011;27892;52.378;13.122;2022-08-19T01:10:33;3.80;;;3.50;;
42226;SDS011;27892;52.378;13.122;2022-08-19T01:13:04;5.47;;;4.97;;
42226;SDS011;27892;52.378;13.122;2022-08-19T01:15:31;7.07;;;6.38;;
42226;SDS011;27892;52.378;13.122;2022-08-19T01:18:04;7.25;;;6.55;;
42226;SDS011;27892;52.378;13.122;2022-08-19T01:20:34;7.53;;;6.78;;
42226;SDS011;27892;52.378;13.122;2022-08-19T01:23:00;6.68;;;6.07;;
42226;SDS011;27892;52.378;13.122;2022-08-19T01:25:31;6.10;;;5.57;;
42226;SDS011;27892;52.378;13.122;2022-08-19T01:27:59;5.70;;;5.20;;
42226;SDS011;27892;52.378;13.122;2022-08-19T01:30:27;4.55;;;4.25;;
42226;SDS011;27892;52.378;13.122;2022-08-19T01:32:55;5.10;;;4.70;;
42226;SDS011;27892;52.378;13.122;2022-08-19T01:35:22;5.07;;;4.68;;
42226;SDS011;27892;52.378;13.122;2022-08-19T01:37:54;6.07;;;5.50;;
42226;SDS011;27892;52.378;13.122;2022-08-19T01:40:23;5.78;;;5.20;;
42226;SDS011;27892;52.378;13.122;2022-08-19T01:42:52;5.55;;;5.05;;
42226;SDS011;27892;52.378;13.122;2022-08-19T01:45:19;5.28;;;4.85;;
42226;SDS011;27892;52.378;13.122;2022-08-19T01:47:47;5.47;;;4.97;;
42226;SDS011;27892;52.378;13.122;2022-08-19T01:50:13;5.00;;;4.60;;
42226;SDS011;27892;52.378;13.122;2022-08-19T01:52:39;5.65;;;5.15;;
42226;SDS011;27892;52.378;13.122;2022-08-19T01:55:07;5.30;;;4.88;;
42226;SDS011;27892;52.378;13.122;2022-08-19T01:57:35;4.88;;;4.47;;
42226;SDS011;27892;52.378;13.122;2022-08-19T02:00:02;5.30;;;4.80;;
42226;SDS011;27892;52.378;13.122;2022-08-19T02:02:31;7.03;;;6.32;;
42226;SDS011;27892;52.378;13.122;2022-08-19T02:04:57;6.28;;;5.78;;
42226;SDS011;27892;52.378;13.122;2022-08-19T02:07:24;5.18;;;4.68;;
42226;SDS011;27892;52.378;13.122;2022-08-19T02:09:49;9.27;;;8.43;;
42226;SDS011;27892;52.378;13.122;2022-08-19T02:12:15;10.52;;;9.00;;
42226;SDS011;27892;52.378;13.122;2022-08-19T02:14:41;10.52;;;8.60;;
42226;SDS011;27892;52.378;13.122;2022-08-19T02:17:07;11.75;;;9.23;;
42226;SDS011;27892;52.378;13.122;2022-08-19T02:19:33;9.93;;;8.93;;
42226;SDS011;27892;52.378;13.122;2022-08-19T02:21:59;10.70;;;9.57;;
42226;SDS011;27892;52.378;13.122;2022-08-19T02:24:25;10.85;;;9.57;;
42226;SDS011;27892;52.378;13.122;2022-08-19T02:26:52;10.00;;;8.93;;
42226;SDS011;27892;52.378;13.122;2022-08-19T02:29:18;9.10;;;8.20;;
42226;SDS011;27892;52.378;13.122;2022-08-19T02:31:44;8.50;;;7.40;;
42226;SDS011;27892;52.378;13.122;2022-08-19T02:34:29;10.52;;;9.18;;
42226;SDS011;27892;52.378;13.122;2022-08-19T02:37:16;10.82;;;9.68;;
42226;SDS011;27892;52.378;13.122;2022-08-19T02:40:19;10.40;;;9.40;;
42226;SDS011;27892;52.378;13.122;2022-08-19T02:43:05;11.45;;;10.35;;
42226;SDS011;27892;52.378;13.122;2022-08-19T02:45:51;10.30;;;8.93;;
42226;SDS011;27892;52.378;13.122;2022-08-19T02:48:36;9.18;;;8.25;;
42226;SDS011;27892;52.378;13.122;2022-08-19T02:51:21;9.38;;;8.13;;
42226;SDS011;27892;52.378;13.122;2022-08-19T02:54:09;10.45;;;9.43;;
42226;SDS011;27892;52.378;13.122;2022-08-19T02:56:54;8.27;;;7.47;;
42226;SDS011;27892;52.378;13.122;2022-08-19T02:59:38;11.90;;;8.77;;
42226;SDS011;27892;52.378;13.122;2022-08-19T03:02:23;10.05;;;8.80;;
42226;SDS011;27892;52.378;13.122;2022-08-19T03:04:49;9.18;;;8.27;;
42226;SDS011;27892;52.378;13.122;2022-08-19T03:07:16;8.63;;;7.82;;
42226;SDS011;27892;52.378;13.122;2022-08-19T03:09:42;9.15;;;8.25;;
42226;SDS011;27892;52.378;13.122;2022-08-19T03:12:08;6.97;;;6.38;;
42226;SDS011;27892;52.378;13.122;2022-08-19T03:14:34;8.38;;;7.57;;
42226;SDS011;27892;52.378;13.122;2022-08-19T03:17:00;9.27;;;8.48;;
42226;SDS011;27892;52.378;13.122;2022-08-19T03:19:26;9.07;;;8.15;;
42226;SDS011;27892;52.378;13.122;2022-08-19T03:21:52;8.90;;;8.00;;
42226;SDS011;27892;52.378;13.122;2022-08-19T03:24:21;8.25;;;7.45;;
42226;SDS011;27892;52.378;13.122;2022-08-19T03:26:48;7.80;;;7.10;;
42226;SDS011;27892;52.378;13.122;2022-08-19T03:29:20;8.15;;;7.35;;
42226;SDS011;27892;52.378;13.122;2022-08-19T03:31:45;8.70;;;7.90;;
42226;SDS011;27892;52.378;13.122;2022-08-19T03:34:12;8.32;;;7.50;;
42226;SDS011;27892;52.378;13.122;2022-08-19T03:36:45;12.73;;;9.48;;
42226;SDS011;27892;52.378;13.122;2022-08-19T03:39:11;8.60;;;7.80;;
42226;SDS011;27892;52.378;13.122;2022-08-19T03:41:38;10.05;;;9.05;;
42226;SDS011;27892;52.378;13.122;2022-08-19T03:44:05;10.32;;;9.32;;
42226;SDS011;27892;52.378;13.122;2022-08-19T03:46:32;9.75;;;8.75;;
42226;SDS011;27892;52.378;13.122;2022-08-19T03:49:00;9.73;;;8.82;;
42226;SDS011;27892;52.378;13.122;2022-08-19T03:51:33;9.93;;;8.90;;
42226;SDS011;27892;52.378;13.122;2022-08-19T03:54:02;9.30;;;8.40;;
42226;SDS011;27892;52.378;13.122;2022-08-19T03:56:30;8.48;;;7.68;;
42226;SDS011;27892;52.378;13.122;2022-08-19T03:58:56;9.57;;;8.57;;
42226;SDS011;27892;52.378;13.122;2022-08-19T04:01:23;7.75;;;7.05;;
42226;SDS011;27892;52.378;13.122;2022-08-19T04:03:54;6.90;;;6.22;;
42226;SDS011;27892;52.378;13.122;2022-08-19T04:06:25;6.53;;;5.93;;
42226;SDS011;27892;52.378;13.122;2022-08-19T04:08:54;5.95;;;5.45;;
42226;SDS011;27892;52.378;13.122;2022-08-19T04:11:24;6.82;;;6.22;;
42226;SDS011;27892;52.378;13.122;2022-08-19T04:13:51;7.53;;;6.82;;
42226;SDS011;27892;52.378;13.122;2022-08-19T04:16:19;7.10;;;6.50;;
42226;SDS011;27892;52.378;13.122;2022-08-19T04:18:54;7.72;;;6.68;;
42226;SDS011;27892;52.378;13.122;2022-08-19T04:21:22;7.05;;;6.45;;
42226;SDS011;27892;52.378;13.122;2022-08-19T04:23:51;5.75;;;5.25;;
42226;SDS011;27892;52.378;13.122;2022-08-19T04:26:19;6.18;;;5.57;;
42226;SDS011;27892;52.378;13.122;2022-08-19T04:28:49;5.57;;;5.18;;
42226;SDS011;27892;52.378;13.122;2022-08-19T04:31:23;7.57;;;6.85;;
42226;SDS011;27892;52.378;13.122;2022-08-19T04:33:51;8.80;;;7.90;;
42226;SDS011;27892;52.378;13.122;2022-08-19T04:36:20;7.53;;;6.82;;
42226;SDS011;27892;52.378;13.122;2022-08-19T04:38:48;8.75;;;7.88;;
42226;SDS011;27892;52.378;13.122;2022-08-19T04:41:18;8.40;;;7.60;;
42226;SDS011;27892;52.378;13.122;2022-08-19T04:44:02;7.20;;;6.50;;
42226;SDS011;27892;52.378;13.122;2022-08-19T04:46:28;7.65;;;6.95;;
42226;SDS011;27892;52.378;13.122;2022-08-19T04:48:55;7.85;;;7.05;;
42226;SDS011;27892;52.378;13.122;2022-08-19T04:51:22;6.95;;;6.25;;
42226;SDS011;27892;52.378;13.122;2022-08-19T04:53:48;7.63;;;6.93;;
42226;SDS011;27892;52.378;13.122;2022-08-19T04:56:14;6.35;;;5.85;;
42226;SDS011;27892;52.378;13.122;2022-08-19T04:58:43;6.68;;;6.03;;
42226;SDS011;27892;52.378;13.122;2022-08-19T05:01:19;7.05;;;6.45;;
42226;SDS011;27892;52.378;13.122;2022-08-19T05:03:47;10.90;;;9.63;;
42226;SDS011;27892;52.378;13.122;2022-08-19T05:06:15;8.07;;;7.25;;
42226;SDS011;27892;52.378;13.122;2022-08-19T05:08:42;7.45;;;6.75;;
42226;SDS011;27892;52.378;13.122;2022-08-19T05:11:16;8.15;;;7.35;;
42226;SDS011;27892;52.378;13.122;2022-08-19T05:13:45;8.43;;;7.63;;
42226;SDS011;27892;52.378;13.122;2022-08-19T05:16:12;7.70;;;6.90;;
42226;SDS011;27892;52.378;13.122;2022-08-19T05:18:39;7.20;;;6.50;;
42226;SDS011;27892;52.378;13.122;2022-08-19T05:21:24;7.03;;;6.43;;
42226;SDS011;27892;52.378;13.122;2022-08-19T05:24:08;7.28;;;6.47;;
42226;SDS011;27892;52.378;13.122;2022-08-19T05:26:38;6.85;;;6.25;;
42226;SDS011;27892;52.378;13.122;2022-08-19T05:29:05;7.65;;;6.95;;
42226;SDS011;27892;52.378;13.122;2022-08-19T05:31:32;8.82;;;7.97;;
42226;SDS011;27892;52.378;13.122;2022-08-19T05:33:58;8.65;;;7.85;;
42226;SDS011;27892;52.378;13.122;2022-08-19T05:36:28;8.88;;;7.97;;
42226;SDS011;27892;52.378;13.122;2022-08-19T05:38:59;8.07;;;7.28;;
42226;SDS011;27892;52.378;13.122;2022-08-19T05:41:25;7.68;;;6.97;;
42226;SDS011;27892;52.378;13.122;2022-08-19T05:43:55;7.53;;;6.85;;
42226;SDS011;27892;52.378;13.122;2022-08-19T05:46:22;7.80;;;7.10;;
42226;SDS011;27892;52.378;13.122;2022-08-19T05:48:48;7.60;;;6.90;;
42226;SDS011;27892;52.378;13.122;2022-08-19T05:51:14;9.15;;;8.25;;
42226;SDS011;27892;52.378;13.122;2022-08-19T05:53:41;9.02;;;8.13;;
42226;SDS011;27892;52.378;13.122;2022-08-19T05:56:08;8.85;;;8.02;;
42226;SDS011;27892;52.378;13.122;2022-08-19T05:58:36;7.50;;;6.78;;
42226;SDS011;27892;52.378;13.122;2022-08-19T06:01:03;8.25;;;7.45;;
42226;SDS011;27892;52.378;13.122;2022-08-19T06:03:34;6.55;;;5.97;;
42226;SDS011;27892;52.378;13.122;2022-08-19T06:06:04;8.43;;;7.60;;
42226;SDS011;27892;52.378;13.122;2022-08-19T06:08:30;8.30;;;7.50;;
42226;SDS011;27892;52.378;13.122;2022-08-19T06:10:57;9.20;;;8.30;;
42226;SDS011;27892;52.378;13.122;2022-08-19T06:13:36;8.27;;;7.47;;
42226;SDS011;27892;52.378;13.122;2022-08-19T06:16:01;6.28;;;5.78;;
42226;SDS011;27892;52.378;13.122;2022-08-19T06:18:27;8.70;;;7.90;;
42226;SDS011;27892;52.378;13.122;2022-08-19T06:20:53;7.35;;;6.75;;
42226;SDS011;27892;52.378;13.122;2022-08-19T06:23:18;7.38;;;6.68;;
42226;SDS011;27892;52.378;13.122;2022-08-19T06:25:45;8.15;;;7.45;;
42226;SDS011;27892;52.378;13.122;2022-08-19T06:28:10;9.60;;;8.13;;
42226;SDS011;27892;52.378;13.122;2022-08-19T06:30:36;8.25;;;7.45;;
42226;SDS011;27892;52.378;13.122;2022-08-19T06:33:02;7.25;;;6.65;;
42226;SDS011;27892;52.378;13.122;2022-08-19T06:35:27;6.97;;;6.38;;
42226;SDS011;27892;52.378;13.122;2022-08-19T06:37:54;7.60;;;6.90;;
42226;SDS011;27892;52.378;13.122;2022-08-19T06:40:20;7.47;;;6.78;;
42226;SDS011;27892;52.378;13.122;2022-08-19T06:42:46;7.00;;;6.40;;
42226;SDS011;27892;52.378;13.122;2022-08-19T06:45:13;6.90;;;6.40;;
42226;SDS011;27892;52.378;13.122;2022-08-19T06:47:39;7.90;;;7.15;;
42226;SDS011;27892;52.378;13.122;2022-08-19T06:50:06;6.97;;;6.40;;
42226;SDS011;27892;52.378;13.122;2022-08-19T06:52:33;7.00;;;6.40;;
42226;SDS011;27892;52.378;13.122;2022-08-19T06:55:00;8.45;;;7.65;;
42226;SDS011;27892;52.378;13.122;2022-08-19T06:57:27;7.75;;;7.05;;
42226;SDS011;27892;52.378;13.122;2022-08-19T06:59:57;7.90;;;7.10;;
42226;SDS011;27892;52.378;13.122;2022-08-19T07:02:25;6.60;;;6.00;;
42226;SDS011;27892;52.378;13.122;2022-08-19T07:04:51;7.35;;;6.65;;
42226;SDS011;27892;52.378;13.122;2022-08-19T07:07:18;6.57;;;5.97;;
42226;SDS011;27892;52.378;13.122;2022-08-19T07:09:45;8.02;;;6.93;;
42226;SDS011;27892;52.378;13.122;2022-08-19T07:12:12;7.53;;;6.82;;
42226;SDS011;27892;52.378;13.122;2022-08-19T07:14:40;7.18;;;6.57;;
42226;SDS011;27892;52.378;13.122;2022-08-19T07:17:08;6.72;;;6.13;;
42226;SDS011;27892;52.378;13.122;2022-08-19T07:19:35;7.38;;;6.78;;
42226;SDS011;27892;52.378;13.122;2022-08-19T07:22:03;7.70;;;6.97;;
42226;SDS011;27892;52.378;13.122;2022-08-19T07:24:31;7.05;;;6.45;;
42226;SDS011;27892;52.378;13.122;2022-08-19T07:26:58;8.40;;;7.60;;
42226;SDS011;27892;52.378;13.122;2022-08-19T07:29:29;6.80;;;6.20;;
42226;SDS011;27892;52.378;13.122;2022-08-19T07:31:58;7.53;;;6.93;;
42226;SDS011;27892;52.378;13.122;2022-08-19T07:34:25;6.82;;;6.25;;
42226;SDS011;27892;52.378;13.122;2022-08-19T07:36:53;8.27;;;7.28;;
42226;SDS011;27892;52.378;13.122;2022-08-19T07:39:28;8.50;;;7.65;;
42226;SDS011;27892;52.378;13.122;2022-08-19T07:41:56;7.95;;;7.25;;
42226;SDS011;27892;52.378;13.122;2022-08-19T07:44:24;9.38;;;8.38;;
42226;SDS011;27892;52.378;13.122;2022-08-19T07:46:51;10.70;;;8.75;;
42226;SDS011;27892;52.378;13.122;2022-08-19T07:49:19;9.60;;;8.70;;
42226;SDS011;27892;52.378;13.122;2022-08-19T07:51:50;10.48;;;9.38;;
42226;SDS011;27892;52.378;13.122;2022-08-19T07:54:21;9.27;;;8.48;;
42226;SDS011;27892;52.378;13.122;2022-08-19T07:56:49;9.18;;;8.25;;
42226;SDS011;27892;52.378;13.122;2022-08-19T07:59:16;7.85;;;7.15;;
42226;SDS011;27892;52.378;13.122;2022-08-19T08:01:43;9.20;;;8.40;;
42226;SDS011;27892;52.378;13.122;2022-08-19T08:04:08;10.10;;;9.05;;
42226;SDS011;27892;52.378;13.122;2022-08-19T08:06:53;9.57;;;8.00;;
42226;SDS011;27892;52.378;13.122;2022-08-19T08:09:40;10.07;;;9.10;;
42226;SDS011;27892;52.378;13.122;2022-08-19T08:12:12;10.10;;;9.10;;
42226;SDS011;27892;52.378;13.122;2022-08-19T08:14:48;9.23;;;8.43;;
42226;SDS011;27892;52.378;13.122;2022-08-19T08:17:18;10.20;;;9.15;;
42226;SDS011;27892;52.378;13.122;2022-08-19T08:19:45;10.73;;;9.45;;
42226;SDS011;27892;52.378;13.122;2022-08-19T08:22:14;11.32;;;9.18;;
42226;SDS011;27892;52.378;13.122;2022-08-19T08:25:04;8.85;;;8.05;;
42226;SDS011;27892;52.378;13.122;2022-08-19T08:27:35;9.30;;;8.40;;
42226;SDS011;27892;52.378;13.122;2022-08-19T08:30:04;10.57;;;9.57;;
42226;SDS011;27892;52.378;13.122;2022-08-19T08:32:38;11.02;;;9.40;;
42226;SDS011;27892;52.378;13.122;2022-08-19T08:35:05;10.35;;;9.35;;
42226;SDS011;27892;52.378;13.122;2022-08-19T08:37:33;10.50;;;9.60;;
42226;SDS011;27892;52.378;13.122;2022-08-19T08:40:02;9.93;;;9.02;;
42226;SDS011;27892;52.378;13.122;2022-08-19T08:42:36;10.95;;;9.93;;
42226;SDS011;27892;52.378;13.122;2022-08-19T08:45:13;11.65;;;10.55;;
42226;SDS011;27892;52.378;13.122;2022-08-19T08:47:43;10.52;;;9.45;;
42226;SDS011;27892;52.378;13.122;2022-08-19T08:50:18;8.90;;;8.00;;
42226;SDS011;27892;52.378;13.122;2022-08-19T08:52:52;9.98;;;9.07;;
42226;SDS011;27892;52.378;13.122;2022-08-19T08:55:22;8.50;;;7.80;;
42226;SDS011;27892;52.378;13.122;2022-08-19T08:57:53;8.23;;;7.53;;
42226;SDS011;27892;52.378;13.122;2022-08-19T09:00:58;8.90;;;8.02;;
42226;SDS011;27892;52.378;13.122;2022-08-19T09:03:25;8.05;;;7.35;;
42226;SDS011;27892;52.378;13.122;2022-08-19T09:06:03;8.00;;;7.30;;
42226;SDS011;27892;52.378;13.122;2022-08-19T09:08:36;8.48;;;7.65;;
42226;SDS011;27892;52.378;13.122;2022-08-19T09:11:34;9.07;;;8.20;;
42226;SDS011;27892;52.378;13.122;2022-08-19T09:16:40;9.85;;;8.90;;
42226;SDS011;27892;52.378;13.122;2022-08-19T09:19:06;8.73;;;7.93;;
42226;SDS011;27892;52.378;13.122;2022-08-19T09:21:33;8.55;;;7.82;;
42226;SDS011;27892;52.378;13.122;2022-08-19T09:24:00;12.23;;;11.02;;
42226;SDS011;27892;52.378;13.122;2022-08-19T09:26:27;11.35;;;10.25;;
42226;SDS011;27892;52.378;13.122;2022-08-19T09:28:52;12.10;;;10.90;;
42226;SDS011;27892;52.378;13.122;2022-08-19T09:31:23;12.10;;;10.90;;
42226;SDS011;27892;52.378;13.122;2022-08-19T09:33:50;10.10;;;9.20;;
42226;SDS011;27892;52.378;13.122;2022-08-19T09:36:18;10.02;;;9.07;;
42226;SDS011;27892;52.378;13.122;2022-08-19T09:38:45;11.73;;;10.68;;
42226;SDS011;27892;52.378;13.122;2022-08-19T09:41:12;11.73;;;10.52;;
42226;SDS011;27892;52.378;13.122;2022-08-19T09:43:46;13.73;;;12.32;;
42226;SDS011;27892;52.378;13.122;2022-08-19T09:46:16;12.95;;;11.68;;
42226;SDS011;27892;52.378;13.122;2022-08-19T09:48:44;14.43;;;12.93;;
42226;SDS011;27892;52.378;13.122;2022-08-19T09:51:13;15.57;;;13.93;;
42226;SDS011;27892;52.378;13.122;2022-08-19T09:53:41;16.73;;;15.02;;
42226;SDS011;27892;52.378;13.122;2022-08-19T09:56:09;16.05;;;13.93;;
42226;SDS011;27892;52.378;13.122;2022-08-19T09:58:34;15.45;;;13.85;;
42226;SDS011;27892;52.378;13.122;2022-08-19T10:01:01;14.35;;;12.95;;
42226;SDS011;27892;52.378;13.122;2022-08-19T10:03:28;15.15;;;13.63;;
42226;SDS011;27892;52.378;13.122;2022-08-19T10:05:54;13.23;;;11.85;;
42226;SDS011;27892;52.378;13.122;2022-08-19T10:08:22;13.48;;;12.07;;
42226;SDS011;27892;52.378;13.122;2022-08-19T10:11:07;13.88;;;12.40;;
42226;SDS011;27892;52.378;13.122;2022-08-19T10:13:34;17.60;;;15.73;;
42226;SDS011;27892;52.378;13.122;2022-08-19T10:16:08;18.70;;;16.42;;
42226;SDS011;27892;52.378;13.122;2022-08-19T10:18:36;15.45;;;13.85;;
42226;SDS011;27892;52.378;13.122;2022-08-19T10:21:06;21.65;;;17.52;;
42226;SDS011;27892;52.378;13.122;2022-08-19T10:23:44;21.75;;;18.38;;
42226;SDS011;27892;52.378;13.122;2022-08-19T10:26:13;17.60;;;15.75;;
42226;SDS011;27892;52.378;13.122;2022-08-19T10:28:41;15.27;;;13.68;;
42226;SDS011;27892;52.378;13.122;2022-08-19T10:31:12;15.48;;;13.88;;
42226;SDS011;27892;52.378;13.122;2022-08-19T10:33:40;19.08;;;16.95;;
42226;SDS011;27892;52.378;13.122;2022-08-19T10:36:10;20.35;;;17.55;;
42226;SDS011;27892;52.378;13.122;2022-08-19T10:38:42;19.70;;;17.58;;
42226;SDS011;27892;52.378;13.122;2022-08-19T10:41:14;19.90;;;16.63;;
42226;SDS011;27892;52.378;13.122;2022-08-19T10:46:20;17.33;;;15.45;;
42226;SDS011;27892;52.378;13.122;2022-08-19T10:48:49;20.70;;;17.77;;
42226;SDS011;27892;52.378;13.122;2022-08-19T10:51:15;18.00;;;15.05;;
42226;SDS011;27892;52.378;13.122;2022-08-19T10:54:00;18.83;;;16.35;;
42226;SDS011;27892;52.378;13.122;2022-08-19T10:56:26;17.17;;;15.38;;
42226;SDS011;27892;52.378;13.122;2022-08-19T10:59:22;21.70;;;17.60;;
42226;SDS011;27892;52.378;13.122;2022-08-19T11:01:49;17.10;;;14.60;;
42226;SDS011;27892;52.378;13.122;2022-08-19T11:04:16;16.90;;;14.65;;
42226;SDS011;27892;52.378;13.122;2022-08-19T11:06:44;15.43;;;13.65;;
42226;SDS011;27892;52.378;13.122;2022-08-19T11:09:12;18.92;;;16.70;;
42226;SDS011;27892;52.378;13.122;2022-08-19T11:11:40;17.27;;;14.95;;
42226;SDS011;27892;52.378;13.122;2022-08-19T11:14:07;18.20;;;15.70;;
42226;SDS011;27892;52.378;13.122;2022-08-19T11:16:34;15.60;;;13.98;;
42226;SDS011;27892;52.378;13.122;2022-08-19T11:19:01;19.27;;;16.67;;
42226;SDS011;27892;52.378;13.122;2022-08-19T11:21:32;16.55;;;14.77;;
42226;SDS011;27892;52.378;13.122;2022-08-19T11:24:03;21.35;;;18.02;;
42226;SDS011;27892;52.378;13.122;2022-08-19T11:26:35;20.75;;;17.05;;
42226;SDS011;27892;52.378;13.122;2022-08-19T11:29:02;16.55;;;14.77;;
42226;SDS011;27892;52.378;13.122;2022-08-19T11:31:30;21.27;;;17.92;;
42226;SDS011;27892;52.378;13.122;2022-08-19T11:33:58;22.58;;;18.90;;
42226;SDS011;27892;52.378;13.122;2022-08-19T11:36:25;18.10;;;15.95;;
42226;SDS011;27892;52.378;13.122;2022-08-19T11:38:51;22.98;;;18.55;;
42226;SDS011;27892;52.378;13.122;2022-08-19T11:41:18;21.70;;;18.15;;
42226;SDS011;27892;52.378;13.122;2022-08-19T11:43:47;22.00;;;17.00;;
42226;SDS011;27892;52.378;13.122;2022-08-19T11:46:14;23.90;;;19.08;;
42226;SDS011;27892;52.378;13.122;2022-08-19T11:48:41;18.80;;;16.55;;
42226;SDS011;27892;52.378;13.122;2022-08-19T11:51:08;17.02;;;15.23;;
42226;SDS011;27892;52.378;13.122;2022-08-19T11:53:37;17.63;;;14.93;;
42226;SDS011;27892;52.378;13.122;2022-08-19T11:56:03;14.95;;;13.27;;
42226;SDS011;27892;52.378;13.122;2022-08-19T11:58:30;19.85;;;17.13;;
42226;SDS011;27892;52.378;13.122;2022-08-19T12:00:56;16.40;;;14.48;;
42226;SDS011;27892;52.378;13.122;2022-08-19T12:03:22;14.77;;;12.98;;
42226;SDS011;27892;52.378;13.122;2022-08-19T12:05:48;16.25;;;14.30;;
42226;SDS011;27892;52.378;13.122;2022-08-19T12:08:14;15.25;;;13.23;;
42226;SDS011;27892;52.378;13.122;2022-08-19T12:10:41;18.42;;;15.93;;
42226;SDS011;27892;52.378;13.122;2022-08-19T12:13:07;19.75;;;16.70;;
42226;SDS011;27892;52.378;13.122;2022-08-19T12:15:38;14.13;;;12.00;;
42226;SDS011;27892;52.378;13.122;2022-08-19T12:18:06;15.73;;;13.07;;
42226;SDS011;27892;52.378;13.122;2022-08-19T12:20:37;14.98;;;13.38;;
42226;SDS011;27892;52.378;13.122;2022-08-19T12:23:05;13.70;;;11.85;;
42226;SDS011;27892;52.378;13.122;2022-08-19T12:25:32;14.32;;;12.52;;
42226;SDS011;27892;52.378;13.122;2022-08-19T12:27:59;15.80;;;13.70;;
42226;SDS011;27892;52.378;13.122;2022-08-19T12:30:25;14.30;;;12.68;;
42226;SDS011;27892;52.378;13.122;2022-08-19T12:32:51;12.48;;;11.18;;
42226;SDS011;27892;52.378;13.122;2022-08-19T12:35:17;14.57;;;11.88;;
42226;SDS011;27892;52.378;13.122;2022-08-19T12:37:45;11.57;;;10.38;;
42226;SDS011;27892;52.378;13.122;2022-08-19T12:40:12;13.07;;;11.70;;
42226;SDS011;27892;52.378;13.122;2022-08-19T12:42:39;12.55;;;11.35;;
42226;SDS011;27892;52.378;13.122;2022-08-19T12:45:11;16.10;;;13.30;;
42226;SDS011;27892;52.378;13.122;2022-08-19T12:47:38;15.45;;;13.85;;
42226;SDS011;27892;52.378;13.122;2022-08-19T12:50:05;15.45;;;13.85;;
42226;SDS011;27892;52.378;13.122;2022-08-19T12:52:33;14.90;;;13.23;;
42226;SDS011;27892;52.378;13.122;2022-08-19T12:55:02;12.07;;;10.88;;
42226;SDS011;27892;52.378;13.122;2022-08-19T12:57:30;12.45;;;10.73;;
42226;SDS011;27892;52.378;13.122;2022-08-19T13:00:00;13.43;;;11.90;;
42226;SDS011;27892;52.378;13.122;2022-08-19T13:02:29;11.43;;;10.20;;
42226;SDS011;27892;52.378;13.122;2022-08-19T13:04:57;10.85;;;9.75;;
42226;SDS011;27892;52.378;13.122;2022-08-19T13:07:23;15.48;;;12.77;;
42226;SDS011;27892;52.378;13.122;2022-08-19T13:09:50;10.48;;;9.38;;
42226;SDS011;27892;52.378;13.122;2022-08-19T13:12:16;8.32;;;7.53;;
42226;SDS011;27892;52.378;13.122;2022-08-19T13:14:44;8.85;;;8.02;;
42226;SDS011;27892;52.378;13.122;2022-08-19T13:17:15;9.07;;;8.18;;
42226;SDS011;27892;52.378;13.122;2022-08-19T13:19:41;9.23;;;8.35;;
42226;SDS011;27892;52.378;13.122;2022-08-19T13:22:07;8.35;;;7.38;;
42226;SDS011;27892;52.378;13.122;2022-08-19T13:24:32;8.38;;;7.63;;
42226;SDS011;27892;52.378;13.122;2022-08-19T13:26:59;7.70;;;7.00;;
42226;SDS011;27892;52.378;13.122;2022-08-19T13:29:25;8.07;;;7.30;;
42226;SDS011;27892;52.378;13.122;2022-08-19T13:32:09;10.73;;;9.63;;
42226;SDS011;27892;52.378;13.122;2022-08-19T13:35:01;10.82;;;9.73;;
42226;SDS011;27892;52.378;13.122;2022-08-19T13:37:27;10.85;;;9.75;;
42226;SDS011;27892;52.378;13.122;2022-08-19T13:40:09;8.27;;;7.55;;
42226;SDS011;27892;52.378;13.122;2022-08-19T13:42:44;7.85;;;7.13;;
42226;SDS011;27892;52.378;13.122;2022-08-19T13:45:13;8.52;;;7.72;;
42226;SDS011;27892;52.378;13.122;2022-08-19T13:47:40;8.00;;;7.30;;
42226;SDS011;27892;52.378;13.122;2022-08-19T13:50:12;9.77;;;8.77;;
42226;SDS011;27892;52.378;13.122;2022-08-19T13:52:40;9.27;;;8.40;;
42226;SDS011;27892;52.378;13.122;2022-08-19T13:55:06;11.27;;;10.07;;
42226;SDS011;27892;52.378;13.122;2022-08-19T13:57:33;8.95;;;8.05;;
42226;SDS011;27892;52.378;13.122;2022-08-19T13:59:59;7.90;;;7.15;;
42226;SDS011;27892;52.378;13.122;2022-08-19T14:02:25;7.88;;;7.10;;
42226;SDS011;27892;52.378;13.122;2022-08-19T14:04:51;7.13;;;6.53;;
42226;SDS011;27892;52.378;13.122;2022-08-19T14:07:17;7.00;;;6.40;;
42226;SDS011;27892;52.378;13.122;2022-08-19T14:09:43;9.32;;;8.43;;
42226;SDS011;27892;52.378;13.122;2022-08-19T14:12:08;8.63;;;7.75;;
42226;SDS011;27892;52.378;13.122;2022-08-19T14:14:37;7.65;;;6.95;;
42226;SDS011;27892;52.378;13.122;2022-08-19T14:17:07;7.68;;;6.97;;
42226;SDS011;27892;52.378;13.122;2022-08-19T14:19:33;8.57;;;7.75;;
42226;SDS011;27892;52.378;13.122;2022-08-19T14:21:58;9.73;;;8.82;;
42226;SDS011;27892;52.378;13.122;2022-08-19T14:24:24;7.90;;;7.18;;
42226;SDS011;27892;52.378;13.122;2022-08-19T14:26:49;9.60;;;8.57;;
42226;SDS011;27892;52.378;13.122;2022-08-19T14:29:15;9.95;;;9.05;;
42226;SDS011;27892;52.378;13.122;2022-08-19T14:31:41;9.65;;;8.75;;
42226;SDS011;27892;52.378;13.122;2022-08-19T14:34:09;9.65;;;8.75;;
42226;SDS011;27892;52.378;13.122;2022-08-19T14:36:36;9.13;;;8.23;;
42226;SDS011;27892;52.378;13.122;2022-08-19T14:39:02;9.70;;;8.77;;
42226;SDS011;27892;52.378;13.122;2022-08-19T14:41:28;10.68;;;9.57;;
42226;SDS011;27892;52.378;13.122;2022-08-19T14:43:55;10.27;;;9.25;;